Old London, Texas
Current Conditions -  °F | °C
As of 8:15 PM on Thursday 20 Nov 2014 (Local Time) from KRFI Reporting Station
Overcast Overcast  
Wind Chill: 62°   Ceiling: 4600
Heat Index: 62°   Visibility: 10mi
Dew Point: 55°   Wind: 7mph
Humidity: 77%   Direction: 150°SSE
Pressure: 30.11"   Gusts: NA
Location:  32.2538°N, 94.9427°W
Report Text: KRFI 210215Z AUTO 15006KT 10SM OVC046 17/13 A3011 RMK AO2 T01650125
Loading
Personal Weather Stations






























Interactive Weather Map New forecast layout! Learn more

10-Day Weather Forecast

Advertisements
Track Severe Weather on mobile